sensor_id;sensor_type;location;lat;lon;timestamp;pressure;altitude;pressure_sealevel;temperature;humidity
52105;BME280;38103;42.776;23.112;2023-03-14T00:00:50;94168.78;;;0.03;74.07
52105;BME280;38103;42.776;23.112;2023-03-14T00:03:16;94159.88;;;-0.12;74.44
52105;BME280;38103;42.776;23.112;2023-03-14T00:05:41;94154.38;;;-0.33;74.95
52105;BME280;38103;42.776;23.112;2023-03-14T00:08:06;94152.88;;;-0.28;74.93
52105;BME280;38103;42.776;23.112;2023-03-14T00:10:32;94145.91;;;-0.19;73.85
52105;BME280;38103;42.776;23.112;2023-03-14T00:12:57;94148.34;;;-0.17;73.48
52105;BME280;38103;42.776;23.112;2023-03-14T00:15:22;94146.56;;;-0.08;72.82
52105;BME280;38103;42.776;23.112;2023-03-14T00:17:48;94147.53;;;-0.09;73.48
52105;BME280;38103;42.776;23.112;2023-03-14T00:20:13;94143.63;;;-0.14;73.41
52105;BME280;38103;42.776;23.112;2023-03-14T00:22:39;94149.34;;;-0.18;73.87
52105;BME280;38103;42.776;23.112;2023-03-14T00:25:07;94136.97;;;-0.25;74.07
52105;BME280;38103;42.776;23.112;2023-03-14T00:27:32;94144.94;;;-0.26;74.39
52105;BME280;38103;42.776;23.112;2023-03-14T00:29:58;94136.63;;;-0.38;74.32
52105;BME280;38103;42.776;23.112;2023-03-14T00:32:23;94144.25;;;-0.53;75.24
52105;BME280;38103;42.776;23.112;2023-03-14T00:34:49;94134.19;;;-0.57;75.95
52105;BME280;38103;42.776;23.112;2023-03-14T00:37:15;94123.47;;;-0.70;76.51
52105;BME280;38103;42.776;23.112;2023-03-14T00:39:41;94073.75;;;-1.09;76.64
52105;BME280;38103;42.776;23.112;2023-03-14T00:42:06;94125.41;;;-0.64;76.57
52105;BME280;38103;42.776;23.112;2023-03-14T00:44:31;94127.84;;;-0.71;76.92
52105;BME280;38103;42.776;23.112;2023-03-14T00:46:59;94116.69;;;-0.54;75.57
52105;BME280;38103;42.776;23.112;2023-03-14T00:49:25;94113.25;;;-0.63;76.19
52105;BME280;38103;42.776;23.112;2023-03-14T00:51:51;94120.88;;;-0.70;76.10
52105;BME280;38103;42.776;23.112;2023-03-14T00:54:17;94121.03;;;-0.80;76.12
52105;BME280;38103;42.776;23.112;2023-03-14T00:56:43;94104.09;;;-0.93;76.67
52105;BME280;38103;42.776;23.112;2023-03-14T00:59:08;94117.41;;;-0.87;76.83
52105;BME280;38103;42.776;23.112;2023-03-14T01:01:33;94109.31;;;-0.84;77.10
52105;BME280;38103;42.776;23.112;2023-03-14T01:03:59;94094.72;;;-0.94;77.38
52105;BME280;38103;42.776;23.112;2023-03-14T01:06:27;94112.13;;;-0.77;77.65
52105;BME280;38103;42.776;23.112;2023-03-14T01:08:53;94109.19;;;-0.74;76.51
52105;BME280;38103;42.776;23.112;2023-03-14T01:11:30;94102.03;;;-0.81;76.62
52105;BME280;38103;42.776;23.112;2023-03-14T01:13:56;94088.88;;;-0.87;76.79
52105;BME280;38103;42.776;23.112;2023-03-14T01:16:24;94093.59;;;-0.74;76.02
52105;BME280;38103;42.776;23.112;2023-03-14T01:18:50;94095.56;;;-0.60;75.20
52105;BME280;38103;42.776;23.112;2023-03-14T01:21:22;94085.53;;;-0.54;74.68
52105;BME280;38103;42.776;23.112;2023-03-14T01:23:49;94077.06;;;-0.73;75.14
52105;BME280;38103;42.776;23.112;2023-03-14T01:26:18;94081.28;;;-0.81;75.35
52105;BME280;38103;42.776;23.112;2023-03-14T01:28:45;94079.31;;;-0.87;75.63
52105;BME280;38103;42.776;23.112;2023-03-14T01:31:11;94080.91;;;-1.03;76.42
52105;BME280;38103;42.776;23.112;2023-03-14T01:33:37;94070.53;;;-1.11;76.95
52105;BME280;38103;42.776;23.112;2023-03-14T01:36:03;94078.00;;;-0.91;76.54
52105;BME280;38103;42.776;23.112;2023-03-14T01:38:30;94065.69;;;-0.89;75.84
52105;BME280;38103;42.776;23.112;2023-03-14T01:40:55;94060.16;;;-1.11;77.48
52105;BME280;38103;42.776;23.112;2023-03-14T01:43:21;94058.16;;;-1.34;78.39
52105;BME280;38103;42.776;23.112;2023-03-14T01:51:15;94048.78;;;-1.10;77.30
52105;BME280;38103;42.776;23.112;2023-03-14T01:53:44;94044.69;;;-1.21;77.85
52105;BME280;38103;42.776;23.112;2023-03-14T01:56:12;94006.97;;;-1.75;79.54
52105;BME280;38103;42.776;23.112;2023-03-14T01:58:41;94044.78;;;-1.56;80.50
52105;BME280;38103;42.776;23.112;2023-03-14T02:01:08;94044.47;;;-1.53;80.64
52105;BME280;38103;42.776;23.112;2023-03-14T02:03:44;94044.50;;;-1.44;80.17
52105;BME280;38103;42.776;23.112;2023-03-14T02:06:12;94050.38;;;-1.34;79.17
52105;BME280;38103;42.776;23.112;2023-03-14T02:08:39;94061.06;;;-1.20;79.09
52105;BME280;38103;42.776;23.112;2023-03-14T02:11:05;94053.63;;;-1.15;78.19
52105;BME280;38103;42.776;23.112;2023-03-14T02:13:32;94054.59;;;-1.25;78.03
52105;BME280;38103;42.776;23.112;2023-03-14T02:15:57;94059.09;;;-1.35;78.98
52105;BME280;38103;42.776;23.112;2023-03-14T02:18:23;94045.63;;;-1.47;79.33
52105;BME280;38103;42.776;23.112;2023-03-14T02:24:15;94059.63;;;-1.66;79.50
52105;BME280;38103;42.776;23.112;2023-03-14T02:27:00;94055.69;;;-1.79;80.25
52105;BME280;38103;42.776;23.112;2023-03-14T02:29:20;94051.59;;;-1.90;80.83
52105;BME280;38103;42.776;23.112;2023-03-14T02:31:45;94062.78;;;-1.89;81.27
52105;BME280;38103;42.776;23.112;2023-03-14T02:34:11;94047.09;;;-1.80;81.29
52105;BME280;38103;42.776;23.112;2023-03-14T02:36:37;94050.56;;;-1.71;80.93
52105;BME280;38103;42.776;23.112;2023-03-14T02:41:29;94056.63;;;-1.88;81.59
52105;BME280;38103;42.776;23.112;2023-03-14T02:43:54;94055.78;;;-1.97;81.95
52105;BME280;38103;42.776;23.112;2023-03-14T02:46:21;94054.28;;;-2.00;81.83
52105;BME280;38103;42.776;23.112;2023-03-14T02:48:51;94054.94;;;-1.98;82.42
52105;BME280;38103;42.776;23.112;2023-03-14T02:51:19;94060.84;;;-1.87;82.21
52105;BME280;38103;42.776;23.112;2023-03-14T02:53:45;94053.47;;;-1.74;81.61
52105;BME280;38103;42.776;23.112;2023-03-14T02:56:11;94059.63;;;-1.66;80.97
52105;BME280;38103;42.776;23.112;2023-03-14T02:58:36;94057.69;;;-1.73;81.23
52105;BME280;38103;42.776;23.112;2023-03-14T03:01:02;94059.25;;;-1.80;81.18
52105;BME280;38103;42.776;23.112;2023-03-14T03:03:27;94051.75;;;-1.92;81.95
52105;BME280;38103;42.776;23.112;2023-03-14T03:05:54;94008.78;;;-2.29;82.50
52105;BME280;38103;42.776;23.112;2023-03-14T03:08:22;94059.66;;;-1.93;82.39
52105;BME280;38103;42.776;23.112;2023-03-14T03:10:48;94013.84;;;-2.28;82.97
52105;BME280;38103;42.776;23.112;2023-03-14T03:13:14;94054.56;;;-2.11;83.89
52105;BME280;38103;42.776;23.112;2023-03-14T03:15:39;94053.34;;;-1.99;83.27
52105;BME280;38103;42.776;23.112;2023-03-14T03:18:06;94060.00;;;-1.96;83.11
52105;BME280;38103;42.776;23.112;2023-03-14T03:20:31;94065.00;;;-1.95;82.72
52105;BME280;38103;42.776;23.112;2023-03-14T03:22:58;94056.88;;;-2.00;82.86
52105;BME280;38103;42.776;23.112;2023-03-14T03:25:24;94052.63;;;-2.09;83.07
52105;BME280;38103;42.776;23.112;2023-03-14T03:27:50;94056.00;;;-2.17;83.50
52105;BME280;38103;42.776;23.112;2023-03-14T03:30:15;94056.00;;;-2.17;83.57
52105;BME280;38103;42.776;23.112;2023-03-14T03:32:41;94054.47;;;-2.28;84.09
52105;BME280;38103;42.776;23.112;2023-03-14T03:35:06;94048.69;;;-2.22;84.27
52105;BME280;38103;42.776;23.112;2023-03-14T03:37:33;94055.78;;;-2.24;84.82
52105;BME280;38103;42.776;23.112;2023-03-14T03:39:59;94051.31;;;-2.14;84.23
52105;BME280;38103;42.776;23.112;2023-03-14T03:42:26;94055.13;;;-2.26;84.41
52105;BME280;38103;42.776;23.112;2023-03-14T03:44:51;94061.31;;;-2.19;84.56
52105;BME280;38103;42.776;23.112;2023-03-14T03:47:17;94060.34;;;-2.18;84.35
52105;BME280;38103;42.776;23.112;2023-03-14T03:49:42;94061.88;;;-2.33;84.69
52105;BME280;38103;42.776;23.112;2023-03-14T03:52:07;94063.50;;;-2.32;85.03
52105;BME280;38103;42.776;23.112;2023-03-14T03:54:34;94064.22;;;-2.22;84.65
52105;BME280;38103;42.776;23.112;2023-03-14T03:57:00;94058.00;;;-2.29;84.87
52105;BME280;38103;42.776;23.112;2023-03-14T03:59:25;94054.16;;;-2.25;84.84
52105;BME280;38103;42.776;23.112;2023-03-14T04:01:50;93980.38;;;-2.74;84.56
52105;BME280;38103;42.776;23.112;2023-03-14T04:04:16;94053.16;;;-2.32;85.02
52105;BME280;38103;42.776;23.112;2023-03-14T04:06:41;94056.59;;;-2.50;85.81
52105;BME280;38103;42.776;23.112;2023-03-14T04:09:08;94051.22;;;-2.30;85.07
52105;BME280;38103;42.776;23.112;2023-03-14T04:11:33;94040.16;;;-2.41;85.13
52105;BME280;38103;42.776;23.112;2023-03-14T04:13:59;94043.47;;;-2.49;85.64
52105;BME280;38103;42.776;23.112;2023-03-14T04:16:25;94039.13;;;-2.48;85.69
52105;BME280;38103;42.776;23.112;2023-03-14T04:18:51;94036.19;;;-2.53;86.01
52105;BME280;38103;42.776;23.112;2023-03-14T04:21:17;94024.81;;;-2.61;86.04
52105;BME280;38103;42.776;23.112;2023-03-14T04:23:43;94040.72;;;-2.47;86.03
52105;BME280;38103;42.776;23.112;2023-03-14T04:26:08;94030.38;;;-2.47;86.09
52105;BME280;38103;42.776;23.112;2023-03-14T04:28:34;94017.13;;;-2.44;85.39
52105;BME280;38103;42.776;23.112;2023-03-14T04:31:16;94028.88;;;-2.31;84.94
52105;BME280;38103;42.776;23.112;2023-03-14T04:33:42;94020.97;;;-2.30;84.70
52105;BME280;38103;42.776;23.112;2023-03-14T04:36:08;94019.13;;;-2.38;84.62
52105;BME280;38103;42.776;23.112;2023-03-14T04:38:34;94019.13;;;-2.38;85.31
52105;BME280;38103;42.776;23.112;2023-03-14T04:41:00;94015.66;;;-2.47;86.05
52105;BME280;38103;42.776;23.112;2023-03-14T04:43:26;94009.38;;;-2.44;86.32
52105;BME280;38103;42.776;23.112;2023-03-14T04:45:53;94005.19;;;-2.45;86.15
52105;BME280;38103;42.776;23.112;2023-03-14T04:48:18;94005.66;;;-2.41;85.80
52105;BME280;38103;42.776;23.112;2023-03-14T04:50:44;93999.00;;;-2.44;86.08
52105;BME280;38103;42.776;23.112;2023-03-14T04:53:11;93999.72;;;-2.33;85.99
52105;BME280;38103;42.776;23.112;2023-03-14T04:55:36;94011.38;;;-2.29;85.74
52105;BME280;38103;42.776;23.112;2023-03-14T04:58:02;94000.72;;;-2.26;85.45
52105;BME280;38103;42.776;23.112;2023-03-14T05:00:27;94002.84;;;-2.21;85.54
52105;BME280;38103;42.776;23.112;2023-03-14T05:02:53;93995.34;;;-2.06;84.84
52105;BME280;38103;42.776;23.112;2023-03-14T05:05:18;93990.13;;;-2.15;85.09
52105;BME280;38103;42.776;23.112;2023-03-14T05:07:44;93998.88;;;-2.07;85.23
52105;BME280;38103;42.776;23.112;2023-03-14T05:10:10;93967.50;;;-2.04;84.57
52105;BME280;38103;42.776;23.112;2023-03-14T05:12:35;93986.34;;;-1.85;84.47
52105;BME280;38103;42.776;23.112;2023-03-14T05:15:01;93968.38;;;-1.87;84.54
52105;BME280;38103;42.776;23.112;2023-03-14T05:17:26;93990.00;;;-1.53;84.62
52105;BME280;38103;42.776;23.112;2023-03-14T05:19:52;93993.94;;;-1.32;83.53
52105;BME280;38103;42.776;23.112;2023-03-14T05:22:17;93993.00;;;-1.06;81.58
52105;BME280;38103;42.776;23.112;2023-03-14T05:24:43;93952.47;;;-1.07;80.98
52105;BME280;38103;42.776;23.112;2023-03-14T05:27:08;93989.44;;;-0.63;79.27
52105;BME280;38103;42.776;23.112;2023-03-14T05:29:33;93989.38;;;-0.29;78.84
52105;BME280;38103;42.776;23.112;2023-03-14T05:31:59;93967.88;;;-0.06;79.36
52105;BME280;38103;42.776;23.112;2023-03-14T05:34:24;93972.63;;;0.22;75.21
52105;BME280;38103;42.776;23.112;2023-03-14T05:36:50;93981.22;;;0.63;75.21
52105;BME280;38103;42.776;23.112;2023-03-14T05:39:15;93991.31;;;1.13;74.50
52105;BME280;38103;42.776;23.112;2023-03-14T05:41:40;93991.22;;;1.60;71.32
52105;BME280;38103;42.776;23.112;2023-03-14T05:44:06;93991.06;;;1.77;66.93
52105;BME280;38103;42.776;23.112;2023-03-14T05:46:31;93994.16;;;1.96;64.53
52105;BME280;38103;42.776;23.112;2023-03-14T05:48:57;93991.44;;;2.04;65.42
52105;BME280;38103;42.776;23.112;2023-03-14T05:51:23;93991.06;;;2.07;64.09
52105;BME280;38103;42.776;23.112;2023-03-14T05:53:48;93989.16;;;2.47;63.44
52105;BME280;38103;42.776;23.112;2023-03-14T05:56:14;93982.16;;;2.69;63.48
52105;BME280;38103;42.776;23.112;2023-03-14T05:58:39;93979.59;;;2.91;62.37
52105;BME280;38103;42.776;23.112;2023-03-14T06:01:06;93966.88;;;3.10;61.49
52105;BME280;38103;42.776;23.112;2023-03-14T06:03:32;93984.28;;;3.46;59.77
52105;BME280;38103;42.776;23.112;2023-03-14T06:05:57;93985.47;;;3.73;58.43
52105;BME280;38103;42.776;23.112;2023-03-14T06:08:23;93942.41;;;3.68;55.56
52105;BME280;38103;42.776;23.112;2023-03-14T06:10:48;93991.41;;;3.88;54.37
52105;BME280;38103;42.776;23.112;2023-03-14T06:13:14;93990.94;;;3.78;54.48
52105;BME280;38103;42.776;23.112;2023-03-14T06:15:41;93986.56;;;3.85;54.88
52105;BME280;38103;42.776;23.112;2023-03-14T06:18:07;93988.13;;;3.51;56.93
52105;BME280;38103;42.776;23.112;2023-03-14T06:20:35;93960.19;;;3.51;56.16
52105;BME280;38103;42.776;23.112;2023-03-14T06:23:00;93981.84;;;3.74;56.43
52105;BME280;38103;42.776;23.112;2023-03-14T06:25:26;93982.84;;;3.44;55.77
52105;BME280;38103;42.776;23.112;2023-03-14T06:27:51;93985.31;;;3.23;56.25
52105;BME280;38103;42.776;23.112;2023-03-14T06:30:16;93986.47;;;3.21;60.21
52105;BME280;38103;42.776;23.112;2023-03-14T06:32:42;93949.44;;;3.39;57.39
52105;BME280;38103;42.776;23.112;2023-03-14T06:35:08;93980.19;;;3.15;57.27
52105;BME280;38103;42.776;23.112;2023-03-14T06:37:33;93976.63;;;2.79;58.17
52105;BME280;38103;42.776;23.112;2023-03-14T06:39:59;93971.75;;;3.13;60.04
52105;BME280;38103;42.776;23.112;2023-03-14T06:42:24;93966.66;;;3.55;58.50
52105;BME280;38103;42.776;23.112;2023-03-14T06:44:49;93968.16;;;3.72;55.27
52105;BME280;38103;42.776;23.112;2023-03-14T06:47:15;93971.13;;;3.11;57.97
52105;BME280;38103;42.776;23.112;2023-03-14T06:49:40;93969.66;;;3.52;57.10
52105;BME280;38103;42.776;23.112;2023-03-14T06:52:05;93965.84;;;3.84;56.80
52105;BME280;38103;42.776;23.112;2023-03-14T06:54:31;93962.59;;;4.17;55.16
52105;BME280;38103;42.776;23.112;2023-03-14T06:56:56;93954.31;;;4.13;55.13
52105;BME280;38103;42.776;23.112;2023-03-14T06:59:21;93971.00;;;4.48;55.94
52105;BME280;38103;42.776;23.112;2023-03-14T07:01:47;93969.66;;;4.79;54.58
52105;BME280;38103;42.776;23.112;2023-03-14T07:04:13;93968.91;;;5.13;54.06
52105;BME280;38103;42.776;23.112;2023-03-14T07:06:38;93966.50;;;5.05;52.85
52105;BME280;38103;42.776;23.112;2023-03-14T07:09:05;93959.38;;;4.71;54.08
52105;BME280;38103;42.776;23.112;2023-03-14T07:11:31;93956.97;;;4.83;53.22
52105;BME280;38103;42.776;23.112;2023-03-14T07:13:57;93943.06;;;4.76;53.83
52105;BME280;38103;42.776;23.112;2023-03-14T07:16:22;93957.78;;;4.84;53.40
52105;BME280;38103;42.776;23.112;2023-03-14T07:18:47;93966.72;;;5.64;52.56
52105;BME280;38103;42.776;23.112;2023-03-14T07:21:14;93953.31;;;6.20;50.85
52105;BME280;38103;42.776;23.112;2023-03-14T07:23:39;93947.16;;;6.47;51.74
52105;BME280;38103;42.776;23.112;2023-03-14T07:26:05;93940.25;;;6.53;49.18
52105;BME280;38103;42.776;23.112;2023-03-14T07:28:31;93939.56;;;6.25;49.82
52105;BME280;38103;42.776;23.112;2023-03-14T07:30:56;93944.50;;;5.87;50.33
52105;BME280;38103;42.776;23.112;2023-03-14T07:33:22;93948.50;;;5.97;50.52
52105;BME280;38103;42.776;23.112;2023-03-14T07:35:48;93897.31;;;5.60;49.78
52105;BME280;38103;42.776;23.112;2023-03-14T07:38:15;93945.25;;;6.08;49.22
52105;BME280;38103;42.776;23.112;2023-03-14T07:40:40;93942.09;;;5.58;50.87
52105;BME280;38103;42.776;23.112;2023-03-14T07:43:06;93941.59;;;6.23;50.56
52105;BME280;38103;42.776;23.112;2023-03-14T07:45:32;93928.84;;;6.33;50.10
52105;BME280;38103;42.776;23.112;2023-03-14T07:47:57;93920.41;;;6.64;49.14
52105;BME280;38103;42.776;23.112;2023-03-14T07:50:26;93916.16;;;6.63;48.64
52105;BME280;38103;42.776;23.112;2023-03-14T07:52:51;93912.28;;;6.72;49.61
52105;BME280;38103;42.776;23.112;2023-03-14T07:55:17;93919.28;;;6.46;52.10
52105;BME280;38103;42.776;23.112;2023-03-14T07:57:42;93897.41;;;6.59;51.44
52105;BME280;38103;42.776;23.112;2023-03-14T08:00:08;93917.41;;;6.92;51.46
52105;BME280;38103;42.776;23.112;2023-03-14T08:02:34;93920.56;;;7.08;50.94
52105;BME280;38103;42.776;23.112;2023-03-14T08:05:01;93915.78;;;6.98;47.96
52105;BME280;38103;42.776;23.112;2023-03-14T08:07:26;93913.22;;;6.85;48.83
52105;BME280;38103;42.776;23.112;2023-03-14T08:09:52;93916.69;;;6.78;49.53
52105;BME280;38103;42.776;23.112;2023-03-14T08:12:17;93916.88;;;7.09;49.95
52105;BME280;38103;42.776;23.112;2023-03-14T08:14:42;93907.50;;;7.20;48.96
52105;BME280;38103;42.776;23.112;2023-03-14T08:17:08;93897.06;;;7.39;48.12
52105;BME280;38103;42.776;23.112;2023-03-14T08:19:34;93916.22;;;7.21;47.89
52105;BME280;38103;42.776;23.112;2023-03-14T08:21:59;93913.88;;;7.82;47.17
52105;BME280;38103;42.776;23.112;2023-03-14T08:24:25;93904.38;;;8.00;45.51
52105;BME280;38103;42.776;23.112;2023-03-14T08:26:50;93897.34;;;8.13;46.09
52105;BME280;38103;42.776;23.112;2023-03-14T08:29:16;93898.69;;;7.59;42.95
52105;BME280;38103;42.776;23.112;2023-03-14T08:31:41;93888.78;;;7.80;45.20
52105;BME280;38103;42.776;23.112;2023-03-14T08:34:07;93875.78;;;8.04;44.86
52105;BME280;38103;42.776;23.112;2023-03-14T08:36:32;93879.69;;;7.57;46.48
52105;BME280;38103;42.776;23.112;2023-03-14T08:38:58;93875.50;;;7.93;45.10
52105;BME280;38103;42.776;23.112;2023-03-14T08:41:23;93881.38;;;7.89;44.19
52105;BME280;38103;42.776;23.112;2023-03-14T08:43:49;93871.09;;;8.06;43.67
52105;BME280;38103;42.776;23.112;2023-03-14T08:46:14;93869.75;;;8.15;43.67
52105;BME280;38103;42.776;23.112;2023-03-14T08:48:40;93873.41;;;8.14;43.07
52105;BME280;38103;42.776;23.112;2023-03-14T08:53:31;93818.50;;;7.43;46.67
52105;BME280;38103;42.776;23.112;2023-03-14T08:55:56;93864.50;;;7.78;43.50
52105;BME280;38103;42.776;23.112;2023-03-14T08:58:22;93861.63;;;8.17;45.06
52105;BME280;38103;42.776;23.112;2023-03-14T09:00:49;93857.50;;;7.90;46.35
52105;BME280;38103;42.776;23.112;2023-03-14T09:03:14;93850.59;;;7.89;45.47
52105;BME280;38103;42.776;23.112;2023-03-14T09:05:39;93848.66;;;7.85;45.63
52105;BME280;38103;42.776;23.112;2023-03-14T09:08:05;93831.84;;;7.86;47.52
52105;BME280;38103;42.776;23.112;2023-03-14T09:10:31;93837.03;;;7.55;46.38
52105;BME280;38103;42.776;23.112;2023-03-14T09:12:56;93831.22;;;7.46;47.51
52105;BME280;38103;42.776;23.112;2023-03-14T09:15:23;93814.47;;;7.40;48.34
52105;BME280;38103;42.776;23.112;2023-03-14T09:17:48;93821.53;;;7.65;47.98
52105;BME280;38103;42.776;23.112;2023-03-14T09:20:14;93815.22;;;7.66;48.36
52105;BME280;38103;42.776;23.112;2023-03-14T09:22:39;93813.03;;;7.82;47.47
52105;BME280;38103;42.776;23.112;2023-03-14T09:25:05;93814.56;;;7.90;46.10
52105;BME280;38103;42.776;23.112;2023-03-14T09:27:31;93813.91;;;7.76;43.28
52105;BME280;38103;42.776;23.112;2023-03-14T09:29:56;93807.19;;;7.80;43.76
52105;BME280;38103;42.776;23.112;2023-03-14T09:32:21;93800.00;;;8.06;47.40
52105;BME280;38103;42.776;23.112;2023-03-14T09:34:47;93795.09;;;8.10;46.64
52105;BME280;38103;42.776;23.112;2023-03-14T09:37:12;93790.59;;;8.29;46.01
52105;BME280;38103;42.776;23.112;2023-03-14T09:39:38;93789.09;;;8.33;46.70
52105;BME280;38103;42.776;23.112;2023-03-14T09:42:06;93784.09;;;8.44;45.47
52105;BME280;38103;42.776;23.112;2023-03-14T09:44:39;93780.38;;;8.33;43.66
52105;BME280;38103;42.776;23.112;2023-03-14T09:47:11;93768.00;;;8.21;43.21
52105;BME280;38103;42.776;23.112;2023-03-14T09:49:40;93769.13;;;8.13;44.13
52105;BME280;38103;42.776;23.112;2023-03-14T09:52:19;93759.72;;;8.18;44.38
52105;BME280;38103;42.776;23.112;2023-03-14T09:54:50;93767.19;;;8.21;44.33
52105;BME280;38103;42.776;23.112;2023-03-14T09:57:21;93755.78;;;8.39;46.07
52105;BME280;38103;42.776;23.112;2023-03-14T09:59:48;93758.06;;;8.35;44.29
52105;BME280;38103;42.776;23.112;2023-03-14T10:02:17;93749.28;;;8.54;44.54
52105;BME280;38103;42.776;23.112;2023-03-14T10:04:45;93709.50;;;8.31;42.29
52105;BME280;38103;42.776;23.112;2023-03-14T10:07:16;93738.59;;;8.36;44.80
52105;BME280;38103;42.776;23.112;2023-03-14T10:09:45;93726.47;;;8.35;45.50
52105;BME280;38103;42.776;23.112;2023-03-14T10:12:12;93722.56;;;8.38;43.41
52105;BME280;38103;42.776;23.112;2023-03-14T10:14:49;93717.81;;;8.59;45.52
52105;BME280;38103;42.776;23.112;2023-03-14T10:17:15;93712.75;;;8.57;44.13
52105;BME280;38103;42.776;23.112;2023-03-14T10:19:59;93689.25;;;8.32;43.66
52105;BME280;38103;42.776;23.112;2023-03-14T10:22:28;93712.22;;;8.67;43.74
52105;BME280;38103;42.776;23.112;2023-03-14T10:24:56;93707.63;;;8.75;44.32
52105;BME280;38103;42.776;23.112;2023-03-14T10:27:33;93695.47;;;8.74;43.74
52105;BME280;38103;42.776;23.112;2023-03-14T10:30:01;93695.03;;;8.65;42.55
52105;BME280;38103;42.776;23.112;2023-03-14T10:32:32;93692.41;;;8.89;43.36
52105;BME280;38103;42.776;23.112;2023-03-14T10:37:34;93676.44;;;9.20;42.59
52105;BME280;38103;42.776;23.112;2023-03-14T10:40:01;93666.66;;;9.20;42.25
52105;BME280;38103;42.776;23.112;2023-03-14T10:42:39;93669.84;;;9.34;41.99
52105;BME280;38103;42.776;23.112;2023-03-14T10:47:50;93651.53;;;9.27;41.76
52105;BME280;38103;42.776;23.112;2023-03-14T10:50:30;93644.56;;;9.50;42.68
52105;BME280;38103;42.776;23.112;2023-03-14T10:52:57;93632.03;;;9.58;41.55
52105;BME280;38103;42.776;23.112;2023-03-14T10:55:25;93630.13;;;9.41;41.03
52105;BME280;38103;42.776;23.112;2023-03-14T10:57:51;93623.28;;;9.40;41.82
52105;BME280;38103;42.776;23.112;2023-03-14T11:00:20;93612.31;;;9.78;43.25
52105;BME280;38103;42.776;23.112;2023-03-14T11:05:31;93602.91;;;10.16;40.88
52105;BME280;38103;42.776;23.112;2023-03-14T11:08:11;93596.81;;;10.33;40.31
52105;BME280;38103;42.776;23.112;2023-03-14T11:10:42;93575.81;;;10.26;41.34
52105;BME280;38103;42.776;23.112;2023-03-14T11:18:44;93551.19;;;10.03;40.75
52105;BME280;38103;42.776;23.112;2023-03-14T11:24:18;93554.63;;;10.38;39.94
52105;BME280;38103;42.776;23.112;2023-03-14T11:27:13;93545.94;;;10.60;39.84
52105;BME280;38103;42.776;23.112;2023-03-14T11:35:29;93534.78;;;11.03;38.72
52105;BME280;38103;42.776;23.112;2023-03-14T11:40:27;93527.81;;;10.92;38.63
52105;BME280;38103;42.776;23.112;2023-03-14T11:43:15;93519.31;;;10.90;39.60
52105;BME280;38103;42.776;23.112;2023-03-14T11:45:43;93510.81;;;10.88;37.12
52105;BME280;38103;42.776;23.112;2023-03-14T11:50:52;93495.28;;;11.19;38.87
52105;BME280;38103;42.776;23.112;2023-03-14T11:53:41;93486.31;;;11.20;36.56
52105;BME280;38103;42.776;23.112;2023-03-14T11:56:18;93481.19;;;11.41;36.53
52105;BME280;38103;42.776;23.112;2023-03-14T11:59:07;93476.50;;;11.48;35.29
52105;BME280;38103;42.776;23.112;2023-03-14T12:04:34;93466.41;;;11.45;35.58
52105;BME280;38103;42.776;23.112;2023-03-14T12:07:14;93457.69;;;11.50;36.08
52105;BME280;38103;42.776;23.112;2023-03-14T12:09:42;93453.53;;;11.54;37.39
52105;BME280;38103;42.776;23.112;2023-03-14T12:12:12;93418.75;;;11.45;37.27
52105;BME280;38103;42.776;23.112;2023-03-14T12:14:52;93446.53;;;11.81;35.22
52105;BME280;38103;42.776;23.112;2023-03-14T12:19:45;93430.19;;;11.89;36.51
52105;BME280;38103;42.776;23.112;2023-03-14T12:24:51;93428.59;;;11.93;37.02
52105;BME280;38103;42.776;23.112;2023-03-14T12:35:42;93403.19;;;12.46;36.01
52105;BME280;38103;42.776;23.112;2023-03-14T12:38:17;93388.06;;;12.42;34.21
52105;BME280;38103;42.776;23.112;2023-03-14T12:43:50;93381.91;;;12.31;35.12
52105;BME280;38103;42.776;23.112;2023-03-14T12:46:28;93378.47;;;12.30;33.96
52105;BME280;38103;42.776;23.112;2023-03-14T12:48:55;93367.34;;;12.33;33.99
52105;BME280;38103;42.776;23.112;2023-03-14T12:51:38;93357.31;;;12.40;34.41
52105;BME280;38103;42.776;23.112;2023-03-14T12:59:14;93358.13;;;12.51;34.85
52105;BME280;38103;42.776;23.112;2023-03-14T13:04:43;93345.69;;;12.57;35.41
52105;BME280;38103;42.776;23.112;2023-03-14T13:07:28;93349.44;;;12.82;35.56
52105;BME280;38103;42.776;23.112;2023-03-14T13:10:18;93341.44;;;12.61;34.99
52105;BME280;38103;42.776;23.112;2023-03-14T13:12:49;93342.53;;;12.76;35.98
52105;BME280;38103;42.776;23.112;2023-03-14T13:15:22;93328.75;;;12.84;35.42
52105;BME280;38103;42.776;23.112;2023-03-14T13:17:50;93328.75;;;12.84;35.72
52105;BME280;38103;42.776;23.112;2023-03-14T13:20:23;93317.59;;;12.82;34.25
52105;BME280;38103;42.776;23.112;2023-03-14T13:22:50;93312.03;;;12.79;35.81
52105;BME280;38103;42.776;23.112;2023-03-14T13:25:16;93309.13;;;12.96;35.74
52105;BME280;38103;42.776;23.112;2023-03-14T13:27:46;93276.75;;;12.78;35.46
52105;BME280;38103;42.776;23.112;2023-03-14T13:30:20;93287.09;;;12.85;34.87
52105;BME280;38103;42.776;23.112;2023-03-14T13:32:47;93285.25;;;12.85;35.72
52105;BME280;38103;42.776;23.112;2023-03-14T13:37:52;93284.16;;;13.18;35.60
52105;BME280;38103;42.776;23.112;2023-03-14T13:40:34;93271.41;;;13.20;35.31
52105;BME280;38103;42.776;23.112;2023-03-14T13:45:47;93259.19;;;13.40;34.27
52105;BME280;38103;42.776;23.112;2023-03-14T13:48:13;93252.28;;;13.28;34.27
52105;BME280;38103;42.776;23.112;2023-03-14T13:50:45;93251.47;;;13.38;34.10
52105;BME280;38103;42.776;23.112;2023-03-14T13:53:11;93250.66;;;13.38;34.21
52105;BME280;38103;42.776;23.112;2023-03-14T13:55:37;93238.97;;;13.44;34.14
52105;BME280;38103;42.776;23.112;2023-03-14T13:58:03;93228.38;;;13.44;33.85
52105;BME280;38103;42.776;23.112;2023-03-14T14:00:28;93231.56;;;13.41;33.08
52105;BME280;38103;42.776;23.112;2023-03-14T14:02:56;93222.25;;;13.44;34.29
52105;BME280;38103;42.776;23.112;2023-03-14T14:05:26;93213.50;;;13.38;32.99
52105;BME280;38103;42.776;23.112;2023-03-14T14:07:52;93171.06;;;13.27;34.34
52105;BME280;38103;42.776;23.112;2023-03-14T14:10:18;93185.38;;;13.37;33.70